createdAt,value
2018-06-24T00:00:21.749Z,12.9
2018-06-24T00:01:31.497Z,12.76
2018-06-24T00:02:41.240Z,12.88
2018-06-24T00:03:50.982Z,12.75
2018-06-24T00:05:00.717Z,12.87
2018-06-24T00:06:10.461Z,12.86
2018-06-24T00:07:20.477Z,12.87
2018-06-24T00:08:30.481Z,13.02
2018-06-24T00:09:40.489Z,13.01
2018-06-24T00:10:50.231Z,12.99
2018-06-24T00:11:59.975Z,12.95
2018-06-24T00:13:09.720Z,13.02
2018-06-24T00:14:19.693Z,12.95
2018-06-24T00:15:29.521Z,12.88
2018-06-24T00:16:39.265Z,12.9
2018-06-24T00:17:49.267Z,12.83
2018-06-24T00:18:59.048Z,12.8
2018-06-24T00:20:08.265Z,12.65
2018-06-24T00:21:18.011Z,12.62
2018-06-24T00:22:28.019Z,12.53
2018-06-24T00:23:37.495Z,12.53
2018-06-24T00:24:47.530Z,12.43
2018-06-24T00:25:57.544Z,12.29
2018-06-24T00:27:07.014Z,12.21
2018-06-24T00:28:16.753Z,12.15
2018-06-24T00:29:26.769Z,12.14
2018-06-24T00:30:36.273Z,12.11
2018-06-24T00:31:46.010Z,12.03
2018-06-24T00:32:56.021Z,11.96
2018-06-24T00:34:06.030Z,12.02
2018-06-24T00:35:15.518Z,12.03
2018-06-24T00:36:25.262Z,11.88
2018-06-24T00:37:35.003Z,11.86
2018-06-24T00:38:44.752Z,11.91
2018-06-24T00:39:54.759Z,11.93
2018-06-24T00:41:04.767Z,11.78
2018-06-24T00:42:14.509Z,11.76
2018-06-24T00:43:24.248Z,11.67
2018-06-24T00:44:33.987Z,11.63
2018-06-24T00:45:43.731Z,11.59
2018-06-24T00:46:53.744Z,11.62
2018-06-24T00:48:03.748Z,11.56
2018-06-24T00:49:13.222Z,11.6
2018-06-24T00:50:23.230Z,11.53
2018-06-24T00:51:32.705Z,11.52
2018-06-24T00:52:42.442Z,11.45
2018-06-24T00:53:52.454Z,11.53
2018-06-24T00:55:01.930Z,11.51
2018-06-24T00:56:11.406Z,11.55
2018-06-24T00:57:21.414Z,11.44
2018-06-24T00:58:30.891Z,11.43
2018-06-24T00:59:40.629Z,11.49
2018-06-24T01:00:50.640Z,11.67
2018-06-24T01:02:00.108Z,11.63
2018-06-24T01:03:09.846Z,11.67
2018-06-24T01:04:19.318Z,11.74
2018-06-24T01:05:29.332Z,11.81
2018-06-24T01:06:38.805Z,11.78
2018-06-24T01:07:48.820Z,11.76
2018-06-24T01:08:58.304Z,11.93
2018-06-24T01:10:08.326Z,11.81
2018-06-24T01:11:18.360Z,11.86
2018-06-24T01:12:27.832Z,11.88
2018-06-24T01:13:37.308Z,11.86
2018-06-24T01:14:47.322Z,11.89
2018-06-24T01:15:57.338Z,11.85
2018-06-24T01:17:07.343Z,11.96
2018-06-24T01:18:17.086Z,11.86
2018-06-24T01:19:26.563Z,11.95
2018-06-24T01:20:36.567Z,11.93
2018-06-24T01:21:46.570Z,11.88
2018-06-24T01:22:56.312Z,11.93
2018-06-24T01:24:06.055Z,12.11
2018-06-24T01:25:15.795Z,12.26
2018-06-24T01:26:25.795Z,12.35
2018-06-24T01:27:35.535Z,12.43
2018-06-24T01:28:45.546Z,12.37
2018-06-24T01:29:55.552Z,12.37
2018-06-24T01:31:05.069Z,12.36
2018-06-24T01:32:14.811Z,12.28
2018-06-24T01:33:24.816Z,12.33
2018-06-24T01:34:34.818Z,12.3
2018-06-24T01:35:44.822Z,12.36
2018-06-24T01:36:54.309Z,12.4
2018-06-24T01:38:04.322Z,12.39
2018-06-24T01:39:14.331Z,12.51
2018-06-24T01:40:24.077Z,12.47
2018-06-24T01:41:34.085Z,12.48
2018-06-24T01:42:44.099Z,12.51
2018-06-24T01:43:54.107Z,12.44
2018-06-24T01:45:03.887Z,12.5
2018-06-24T01:46:13.361Z,12.58
2018-06-24T01:47:23.387Z,12.58
2018-06-24T01:48:33.468Z,12.53
2018-06-24T01:49:43.482Z,12.57
2018-06-24T01:50:53.537Z,12.53
2018-06-24T01:52:03.278Z,12.51
2018-06-24T01:53:13.024Z,12.45
2018-06-24T01:54:22.509Z,12.51
2018-06-24T01:55:32.514Z,12.51
2018-06-24T01:56:42.532Z,12.54
2018-06-24T01:57:52.541Z,12.51
2018-06-24T01:59:02.275Z,12.47
2018-06-24T02:00:12.015Z,12.4
2018-06-24T02:01:22.036Z,12.48
2018-06-24T02:02:35.549Z,12.43
2018-06-24T02:03:45.556Z,12.43
2018-06-24T02:04:55.566Z,12.45
2018-06-24T02:06:05.037Z,12.4
2018-06-24T02:07:14.810Z,12.5
2018-06-24T02:08:24.764Z,12.53
2018-06-24T02:09:34.775Z,12.5
2018-06-24T02:10:44.775Z,12.48
2018-06-24T02:11:54.528Z,12.5
2018-06-24T02:13:04.262Z,12.35
2018-06-24T02:14:14.256Z,12.4
2018-06-24T02:15:24.264Z,12.32
2018-06-24T02:16:33.736Z,12.4
2018-06-24T02:17:43.484Z,12.28
2018-06-24T02:18:53.493Z,12.26
2018-06-24T02:20:06.467Z,12.26
2018-06-24T02:21:16.211Z,12.14
2018-06-24T02:22:25.683Z,12.17
2018-06-24T02:23:35.153Z,12.17
2018-06-24T02:24:45.167Z,12.11
2018-06-24T02:25:54.374Z,12.17
2018-06-24T02:27:04.386Z,12.11
2018-06-24T02:28:14.394Z,12.07
2018-06-24T02:29:24.403Z,12.05
2018-06-24T02:30:33.949Z,12
2018-06-24T02:31:43.696Z,12.1
2018-06-24T02:32:53.443Z,11.96
2018-06-24T02:34:03.184Z,12.07
2018-06-24T02:35:13.196Z,11.96
2018-06-24T02:36:22.690Z,11.93
2018-06-24T02:37:32.739Z,11.93
2018-06-24T02:38:42.234Z,11.96
2018-06-24T02:39:51.710Z,11.97
2018-06-24T02:41:01.461Z,11.99
2018-06-24T02:42:11.471Z,11.96
2018-06-24T02:43:21.215Z,12
2018-06-24T02:44:30.956Z,11.96
2018-06-24T02:45:41.040Z,11.89
2018-06-24T02:46:50.522Z,11.93
2018-06-24T02:48:00.266Z,11.95
2018-06-24T02:49:10.016Z,12.03
2018-06-24T02:50:19.765Z,12.05
2018-06-24T02:51:29.519Z,11.99
2018-06-24T02:52:39.272Z,11.97
2018-06-24T02:53:49.007Z,12
2018-06-24T02:54:58.755Z,11.99
2018-06-24T02:56:08.782Z,12.02
2018-06-24T02:57:18.821Z,11.99
2018-06-24T02:58:28.572Z,12.03
2018-06-24T02:59:38.589Z,12.07
2018-06-24T03:03:27.335Z,12.12
2018-06-24T03:04:37.085Z,12.15
2018-06-24T03:05:47.097Z,12.17
2018-06-24T03:06:57.117Z,12.17
2018-06-24T03:08:06.597Z,12.15
2018-06-24T03:09:16.340Z,12.15
2018-06-24T03:10:25.812Z,12.2
2018-06-24T03:11:35.024Z,12.17
2018-06-24T03:12:44.506Z,12.2
2018-06-24T03:13:54.528Z,12.14
2018-06-24T03:15:04.283Z,12.14
2018-06-24T03:16:14.297Z,12.18
2018-06-24T03:17:24.309Z,12.26
2018-06-24T03:18:33.791Z,12.3
2018-06-24T03:19:43.565Z,12.3
2018-06-24T03:20:53.318Z,12.3
2018-06-24T03:22:03.065Z,12.39
2018-06-24T03:23:13.083Z,12.35
2018-06-24T03:24:23.115Z,12.3
2018-06-24T03:25:32.592Z,12.35
2018-06-24T03:26:42.601Z,12.45
2018-06-24T03:27:52.608Z,12.44
2018-06-24T03:29:02.089Z,12.48
2018-06-24T03:30:12.102Z,12.55
2018-06-24T03:31:21.882Z,12.48
2018-06-24T03:32:31.628Z,12.47
2018-06-24T03:33:41.365Z,12.57
2018-06-24T03:34:51.378Z,12.44
2018-06-24T03:36:00.852Z,12.55
2018-06-24T03:37:10.587Z,12.55
2018-06-24T03:38:20.076Z,12.62
2018-06-24T03:39:30.133Z,12.57
2018-06-24T03:40:39.872Z,12.62
2018-06-24T03:41:49.615Z,12.63
2018-06-24T03:42:59.354Z,12.66
2018-06-24T03:44:08.830Z,12.69
2018-06-24T03:45:18.845Z,12.63
2018-06-24T03:46:28.320Z,12.75
2018-06-24T03:47:38.327Z,12.75
2018-06-24T03:48:48.334Z,12.78
2018-06-24T03:49:58.341Z,12.86
2018-06-24T03:51:08.083Z,12.86
2018-06-24T03:52:17.822Z,12.94
2018-06-24T03:53:27.831Z,12.95
2018-06-24T03:54:37.571Z,12.93
2018-06-24T03:55:47.572Z,12.93
2018-06-24T03:56:57.578Z,12.95
2018-06-24T03:58:07.778Z,12.95
2018-06-24T03:59:17.766Z,12.95
2018-06-24T04:00:27.779Z,12.93
2018-06-24T04:01:37.795Z,13.02
2018-06-24T04:02:47.805Z,13.09
2018-06-24T04:03:57.813Z,13.12
2018-06-24T04:05:07.292Z,13.09
2018-06-24T04:06:17.306Z,13.16
2018-06-24T04:07:27.333Z,13.09
2018-06-24T04:08:37.078Z,13.16
2018-06-24T04:09:47.083Z,13.19
2018-06-24T04:10:57.112Z,13.19
2018-06-24T04:12:07.124Z,13.2
2018-06-24T04:13:16.870Z,13.21
2018-06-24T04:14:26.613Z,13.28
2018-06-24T04:15:36.353Z,13.23
2018-06-24T04:16:46.095Z,13.19
2018-06-24T04:17:56.106Z,13.19
2018-06-24T04:19:06.115Z,13.24
2018-06-24T04:20:16.126Z,13.26
2018-06-24T04:21:26.134Z,13.16
2018-06-24T04:22:36.149Z,13.26
2018-06-24T04:23:46.159Z,13.2
2018-06-24T04:24:56.169Z,13.33
2018-06-24T04:26:05.932Z,13.31
2018-06-24T04:27:15.947Z,13.24
2018-06-24T04:28:25.688Z,13.26
2018-06-24T04:29:35.435Z,13.27
2018-06-24T04:30:44.906Z,13.28
2018-06-24T04:31:54.381Z,13.3
2018-06-24T04:33:03.862Z,13.26
2018-06-24T04:34:13.879Z,13.36
2018-06-24T04:35:23.355Z,13.31
2018-06-24T04:36:32.828Z,13.33
2018-06-24T04:37:42.578Z,13.31
2018-06-24T04:38:52.590Z,13.4
2018-06-24T04:40:02.336Z,13.42
2018-06-24T04:41:12.077Z,13.47
2018-06-24T04:42:21.832Z,13.5
2018-06-24T04:43:31.581Z,13.49
2018-06-24T04:44:41.589Z,13.42
2018-06-24T04:45:51.599Z,13.43
2018-06-24T04:47:01.338Z,13.49
2018-06-24T04:48:11.352Z,13.58
2018-06-24T04:49:21.088Z,13.57
2018-06-24T04:50:30.618Z,13.64
2018-06-24T04:51:40.763Z,13.65
2018-06-24T04:52:51.149Z,13.65
2018-06-24T04:54:01.158Z,13.68
2018-06-24T04:55:10.901Z,13.67
2018-06-24T04:56:20.376Z,13.75
2018-06-24T04:57:30.385Z,13.73
2018-06-24T04:58:40.392Z,13.73
2018-06-24T04:59:50.139Z,13.83
2018-06-24T05:00:59.881Z,13.87
2018-06-24T05:02:09.625Z,13.79
2018-06-24T05:03:19.632Z,13.8
2018-06-24T05:04:29.374Z,13.86
2018-06-24T05:05:39.123Z,13.97
2018-06-24T05:06:49.135Z,13.8
2018-06-24T05:07:58.346Z,13.95
2018-06-24T05:09:07.831Z,13.87
2018-06-24T05:10:17.839Z,14.03
2018-06-24T05:11:27.578Z,14.07
2018-06-24T05:12:37.329Z,14.12
2018-06-24T05:13:47.334Z,14.13
2018-06-24T05:14:57.080Z,14.04
2018-06-24T05:16:06.822Z,14.12
2018-06-24T05:17:16.567Z,13.98
2018-06-24T05:18:26.572Z,14.03
2018-06-24T05:19:36.578Z,14.08
2018-06-24T05:20:46.328Z,14.05
2018-06-24T05:21:56.341Z,14.11
2018-06-24T05:23:06.083Z,13.98
2018-06-24T05:24:16.092Z,13.98
2018-06-24T05:25:25.567Z,13.89
2018-06-24T05:26:35.044Z,13.82
2018-06-24T05:27:44.881Z,13.78
2018-06-24T05:28:54.890Z,13.78
2018-06-24T05:30:04.962Z,13.71
2018-06-24T05:31:14.976Z,13.67
2018-06-24T05:32:24.713Z,13.67
2018-06-24T05:33:34.454Z,13.75
2018-06-24T05:34:44.195Z,13.79
2018-06-24T05:35:54.203Z,13.79
2018-06-24T05:37:03.943Z,13.78
2018-06-24T05:38:13.952Z,13.78
2018-06-24T05:39:23.963Z,13.83
2018-06-24T05:40:33.704Z,13.86
2018-06-24T05:41:43.446Z,13.95
2018-06-24T05:42:53.191Z,13.97
2018-06-24T05:44:02.724Z,13.98
2018-06-24T05:45:12.511Z,14.03
2018-06-24T05:46:22.527Z,14.13
2018-06-24T05:47:32.539Z,14.05
2018-06-24T05:48:42.586Z,14.15
2018-06-24T05:49:52.722Z,14.11
2018-06-24T05:51:02.197Z,14.22
2018-06-24T05:52:12.205Z,14.12
2018-06-24T05:53:21.677Z,14.15
2018-06-24T05:54:31.425Z,14.23
2018-06-24T05:55:41.167Z,14.34
2018-06-24T05:56:51.186Z,14.38
2018-06-24T05:58:00.669Z,14.4
2018-06-24T05:59:10.150Z,14.41
2018-06-24T06:00:20.163Z,14.33
2018-06-24T06:01:29.902Z,14.44
2018-06-24T06:02:39.918Z,14.55
2018-06-24T06:03:49.925Z,14.53
2018-06-24T06:04:59.940Z,14.58
2018-06-24T06:06:09.152Z,14.52
2018-06-24T06:07:19.162Z,14.66
2018-06-24T06:08:28.909Z,14.7
2018-06-24T06:09:38.648Z,14.74
2018-06-24T06:10:48.122Z,14.77
2018-06-24T06:11:58.147Z,14.85
2018-06-24T06:13:07.904Z,14.81
2018-06-24T06:14:17.914Z,14.82
2018-06-24T06:15:27.652Z,14.92
2018-06-24T06:16:37.663Z,14.96
2018-06-24T06:17:47.672Z,14.96
2018-06-24T06:18:57.680Z,14.99
2018-06-24T06:20:07.707Z,15.07
2018-06-24T06:21:17.724Z,15.15
2018-06-24T06:22:27.735Z,15.26
2018-06-24T06:23:37.476Z,15.3
2018-06-24T06:24:47.487Z,15.33
2018-06-24T06:25:57.493Z,15.37
2018-06-24T06:27:07.241Z,15.43
2018-06-24T06:28:16.986Z,15.62
2018-06-24T06:29:26.767Z,15.72
2018-06-24T06:30:36.512Z,15.63
2018-06-24T06:31:46.522Z,15.75
2018-06-24T06:32:56.274Z,15.8
2018-06-24T06:34:05.754Z,15.78
2018-06-24T06:35:15.235Z,15.65
2018-06-24T06:36:24.990Z,15.51
2018-06-24T06:37:35.001Z,15.5
2018-06-24T06:38:45.025Z,15.39
2018-06-24T06:39:55.044Z,15.51
2018-06-24T06:41:04.516Z,15.6
2018-06-24T06:42:14.531Z,15.72
2018-06-24T06:43:24.272Z,15.83
2018-06-24T06:44:34.094Z,15.83
2018-06-24T06:45:45.331Z,15.92
2018-06-24T06:46:55.933Z,16.03
2018-06-24T06:48:05.683Z,16.16
2018-06-24T06:49:15.425Z,16.29
2018-06-24T06:50:24.635Z,16.47
2018-06-24T06:51:34.650Z,16.57
2018-06-24T06:52:44.396Z,16.59
2018-06-24T06:53:54.406Z,16.73
2018-06-24T06:55:04.417Z,16.64
2018-06-24T06:56:13.897Z,16.5
2018-06-24T06:57:23.917Z,16.69
2018-06-24T06:58:33.927Z,16.68
2018-06-24T06:59:43.141Z,16.69
2018-06-24T07:00:53.152Z,16.77
2018-06-24T07:02:02.635Z,16.83
2018-06-24T07:03:12.387Z,16.74
2018-06-24T07:04:21.925Z,16.68
2018-06-24T07:05:31.679Z,16.74
2018-06-24T07:06:41.427Z,16.8
2018-06-24T07:07:51.444Z,16.79
2018-06-24T07:09:01.459Z,16.86
2018-06-24T07:10:11.475Z,16.87
2018-06-24T07:11:21.224Z,16.86
2018-06-24T07:12:30.974Z,16.91
2018-06-24T07:13:40.987Z,16.92
2018-06-24T07:14:50.462Z,17.01
2018-06-24T07:15:59.938Z,17.01
2018-06-24T07:17:09.952Z,17.05
2018-06-24T07:18:19.965Z,17.09
2018-06-24T07:19:29.984Z,17.07
2018-06-24T07:20:39.728Z,17.01
2018-06-24T07:21:49.206Z,17.12
2018-06-24T07:22:59.216Z,17.17
2018-06-24T07:24:09.238Z,17.13
2018-06-24T07:25:19.248Z,17.07
2018-06-24T07:26:29.257Z,17.1
2018-06-24T07:27:39.358Z,17.13
2018-06-24T07:28:49.219Z,17.12
2018-06-24T07:29:59.232Z,17.24
2018-06-24T07:31:08.988Z,17.17
2018-06-24T07:32:18.990Z,17.19
2018-06-24T07:33:29.363Z,17.2
2018-06-24T07:34:39.150Z,17.14
2018-06-24T07:35:48.890Z,17.17
2018-06-24T07:36:58.904Z,17.3
2018-06-24T07:38:08.644Z,17.31
2018-06-24T07:39:18.575Z,17.32
2018-06-24T07:40:28.139Z,17.38
2018-06-24T07:41:38.157Z,17.38
2018-06-24T07:42:48.172Z,17.44
2018-06-24T07:43:58.182Z,17.5
2018-06-24T07:45:08.201Z,17.44
2018-06-24T07:46:18.211Z,17.31
2018-06-24T07:47:27.973Z,17.38
2018-06-24T07:48:37.985Z,17.46
2018-06-24T07:49:47.992Z,17.37
2018-06-24T07:50:57.741Z,17.1
2018-06-24T07:52:07.752Z,16.98
2018-06-24T07:53:17.766Z,17.17
2018-06-24T07:54:27.238Z,17.32
2018-06-24T07:55:36.724Z,17.34
2018-06-24T07:56:46.736Z,17.35
2018-06-24T07:57:56.755Z,17.52
2018-06-24T07:59:06.771Z,17.65
2018-06-24T08:00:16.783Z,17.72
2018-06-24T08:01:26.527Z,17.87
2018-06-24T08:02:36.554Z,17.82
2018-06-24T08:03:46.037Z,18.06
2018-06-24T08:04:55.780Z,18.19
2018-06-24T08:06:05.801Z,18.24
2018-06-24T08:07:15.826Z,18.43
2018-06-24T08:08:25.625Z,18.52
2018-06-24T08:09:35.636Z,18.64
2018-06-24T08:10:45.668Z,18.76
2018-06-24T08:11:55.700Z,18.86
2018-06-24T08:13:05.762Z,19.05
2018-06-24T08:14:15.509Z,19.12
2018-06-24T08:15:25.256Z,19.17
2018-06-24T08:16:35.271Z,19.2
2018-06-24T08:17:44.749Z,19.26
2018-06-24T08:18:54.495Z,19.38
2018-06-24T08:20:04.537Z,19.44
2018-06-24T08:21:14.557Z,19.53
2018-06-24T08:22:24.572Z,19.48
2018-06-24T08:23:34.584Z,19.52
2018-06-24T08:24:44.646Z,19.56
2018-06-24T08:25:54.394Z,19.57
2018-06-24T08:27:04.146Z,19.52
2018-06-24T08:28:13.891Z,19.57
2018-06-24T08:29:23.633Z,19.59
2018-06-24T08:30:33.384Z,19.62
2018-06-24T08:31:43.414Z,19.52
2018-06-24T08:32:53.489Z,19.62
2018-06-24T08:34:02.970Z,19.63
2018-06-24T08:35:12.722Z,19.63
2018-06-24T08:36:22.468Z,19.6
2018-06-24T08:37:32.490Z,19.7
2018-06-24T08:38:42.502Z,19.75
2018-06-24T08:39:52.525Z,19.75
2018-06-24T08:41:02.539Z,19.75
2018-06-24T08:42:12.282Z,19.79
2018-06-24T08:43:21.766Z,19.89
2018-06-24T08:44:31.292Z,19.93
2018-06-24T08:45:41.310Z,19.9
2018-06-24T08:46:51.088Z,19.93
2018-06-24T08:48:00.827Z,19.9
2018-06-24T08:49:10.310Z,20
2018-06-24T08:50:19.521Z,20
2018-06-24T08:51:29.537Z,19.94
2018-06-24T08:52:39.287Z,19.92
2018-06-24T08:53:49.036Z,19.44
2018-06-24T08:54:59.056Z,19.45
2018-06-24T08:56:08.797Z,19.48
2018-06-24T08:57:18.560Z,19.67
2018-06-24T08:58:28.579Z,19.64
2018-06-24T08:59:38.593Z,19.63
2018-06-24T09:00:48.436Z,19.7
2018-06-24T09:01:58.474Z,19.6
2018-06-24T09:03:08.486Z,19.39
2018-06-24T09:04:18.499Z,19.48
2018-06-24T09:05:28.520Z,19.39
2018-06-24T09:06:38.541Z,19.41
2018-06-24T09:07:48.300Z,19.59
2018-06-24T09:08:58.315Z,19.66
2018-06-24T09:10:07.531Z,19.66
2018-06-24T09:11:17.291Z,19.78
2018-06-24T09:12:26.773Z,19.94
2018-06-24T09:13:36.853Z,19.99
2018-06-24T09:14:46.943Z,19.93
2018-06-24T09:15:56.955Z,20
2018-06-24T09:17:07.320Z,19.9
2018-06-24T09:18:17.067Z,20.02
2018-06-24T09:19:27.089Z,20.07
2018-06-24T09:20:36.841Z,20.21
2018-06-24T09:21:46.862Z,19.96
2018-06-24T09:22:56.878Z,20.14
2018-06-24T09:24:06.922Z,20.15
2018-06-24T09:25:16.679Z,20.3
2018-06-24T09:26:26.690Z,20.36
2018-06-24T09:27:36.764Z,20.33
2018-06-24T09:28:46.692Z,20.49
2018-06-24T09:29:56.436Z,20.5
2018-06-24T09:31:06.180Z,20.66
2018-06-24T09:32:15.659Z,20.7
2018-06-24T09:33:25.675Z,20.6
2018-06-24T09:34:35.154Z,20.49
2018-06-24T09:35:45.178Z,20.63
2018-06-24T09:36:55.195Z,20.5
2018-06-24T09:38:05.210Z,20.39
2018-06-24T09:39:14.955Z,20.36
2018-06-24T09:40:24.967Z,20.3
2018-06-24T09:41:34.990Z,20.39
2018-06-24T09:42:44.470Z,20.4
2018-06-24T09:43:54.482Z,20.26
2018-06-24T09:45:03.966Z,20.26
2018-06-24T09:46:13.449Z,20.26
2018-06-24T09:47:22.932Z,20.32
2018-06-24T09:48:32.681Z,20.15
2018-06-24T09:49:42.433Z,20.3
2018-06-24T09:50:52.454Z,20.36
2018-06-24T09:52:02.197Z,20.4
2018-06-24T09:53:11.946Z,20.52
2018-06-24T09:54:21.963Z,20.6
2018-06-24T09:55:31.983Z,20.7
2018-06-24T09:56:41.998Z,20.82
2018-06-24T09:57:51.482Z,20.86
2018-06-24T09:59:01.508Z,20.98
2018-06-24T10:00:11.261Z,20.74
2018-06-24T10:01:21.004Z,20.42
2018-06-24T10:02:30.750Z,20.26
2018-06-24T10:03:40.767Z,20.44
2018-06-24T10:04:50.826Z,20.58
2018-06-24T10:06:00.582Z,20.44
2018-06-24T10:07:10.336Z,20.49
2018-06-24T10:08:20.090Z,20.29
2018-06-24T10:09:29.837Z,20.26
2018-06-24T10:10:39.582Z,20.12
2018-06-24T10:11:49.331Z,20.24
2018-06-24T10:12:59.347Z,20.37
2018-06-24T10:14:08.832Z,20.26
2018-06-24T10:15:18.316Z,20.19
2018-06-24T10:16:28.061Z,20.3
2018-06-24T10:17:38.189Z,20.24
2018-06-24T10:18:47.942Z,20.32
2018-06-24T10:19:58.337Z,20.37
2018-06-24T10:21:08.141Z,20.49
2018-06-24T10:22:18.169Z,20.78
2018-06-24T10:23:28.183Z,20.78
2018-06-24T10:24:37.928Z,20.78
2018-06-24T10:25:47.418Z,20.93
2018-06-24T10:26:57.166Z,21.03
2018-06-24T10:28:06.920Z,21.13
2018-06-24T10:29:16.675Z,21.2
2018-06-24T10:30:26.725Z,21.35
2018-06-24T10:31:36.208Z,21.6
2018-06-24T10:32:45.957Z,21.69
2018-06-24T10:33:55.704Z,21.74
2018-06-24T10:35:05.193Z,21.91
2018-06-24T10:36:14.679Z,22.08
2018-06-24T10:37:28.150Z,22.21
2018-06-24T10:38:37.900Z,22.38
2018-06-24T10:39:47.909Z,22.55
2018-06-24T10:40:57.924Z,22.61
2018-06-24T10:42:07.989Z,22.84
2018-06-24T10:43:18.017Z,22.95
2018-06-24T10:44:28.034Z,22.98
2018-06-24T10:45:37.781Z,23.06
2018-06-24T10:46:47.265Z,23.17
2018-06-24T10:47:56.748Z,23.26
2018-06-24T10:49:06.504Z,23.44
2018-06-24T10:50:16.253Z,23.55
2018-06-24T10:51:26.264Z,23.63
2018-06-24T10:52:36.282Z,23.81
2018-06-24T10:53:45.766Z,24
2018-06-24T10:54:55.784Z,24.01
2018-06-24T10:56:05.552Z,24.09
2018-06-24T10:57:15.037Z,24.18
2018-06-24T10:58:24.790Z,24.21
2018-06-24T10:59:34.808Z,24.41
2018-06-24T11:00:44.293Z,24.5
2018-06-24T11:01:54.051Z,24.48
2018-06-24T11:03:03.582Z,24.48
2018-06-24T11:04:13.336Z,24.65
2018-06-24T11:05:23.359Z,24.63
2018-06-24T11:06:36.445Z,24.74
2018-06-24T11:07:46.197Z,24.58
2018-06-24T11:08:56.213Z,24.85
2018-06-24T11:10:05.698Z,24.84
2018-06-24T11:11:15.450Z,24.89
2018-06-24T11:12:24.932Z,25.07
2018-06-24T11:13:34.944Z,25.18
2018-06-24T11:14:44.692Z,25.3
2018-06-24T11:15:54.173Z,25.44
2018-06-24T11:17:03.924Z,25.46
2018-06-24T11:18:13.407Z,25.51
2018-06-24T11:19:23.166Z,25.58
2018-06-24T11:20:32.920Z,25.63
2018-06-24T11:21:42.961Z,25.8
2018-06-24T11:22:52.510Z,25.86
2018-06-24T11:24:02.556Z,26.07
2018-06-24T11:25:11.507Z,25.99
2018-06-24T11:26:21.258Z,26.11
2018-06-24T11:27:30.742Z,26.23
2018-06-24T11:28:40.752Z,26.3
2018-06-24T11:29:50.761Z,26.39
2018-06-24T11:31:00.902Z,26.46
2018-06-24T11:32:10.480Z,26.45
2018-06-24T11:33:20.497Z,26.55
2018-06-24T11:34:30.248Z,26.45
2018-06-24T11:35:40.281Z,26.48
2018-06-24T11:36:50.036Z,26.6
2018-06-24T11:38:00.094Z,26.7
2018-06-24T11:39:10.111Z,26.86
2018-06-24T11:40:19.604Z,27.03
2018-06-24T11:41:29.354Z,27.13
2018-06-24T11:42:38.842Z,27.25
2018-06-24T11:43:48.593Z,27.3
2018-06-24T11:44:58.658Z,27.29
2018-06-24T11:46:08.436Z,27.52
2018-06-24T11:47:18.456Z,27.72
2018-06-24T11:48:28.475Z,27.95
2018-06-24T11:49:38.225Z,28.06
2018-06-24T11:50:47.978Z,28.19
2018-06-24T11:51:57.776Z,28.28
2018-06-24T11:53:07.800Z,28.43
2018-06-24T11:54:17.560Z,28.49
2018-06-24T11:55:27.043Z,28.6
2018-06-24T11:56:36.540Z,28.68
2018-06-24T11:57:46.557Z,28.84
2018-06-24T11:58:56.316Z,28.94
2018-06-24T12:00:06.088Z,29.07
2018-06-24T12:01:16.133Z,29.28
2018-06-24T12:02:26.171Z,29.37
2018-06-24T12:03:36.074Z,29.37
2018-06-24T12:04:45.831Z,29.58
2018-06-24T12:05:55.581Z,29.62
2018-06-24T12:07:05.077Z,29.55
2018-06-24T12:08:14.837Z,29.46
2018-06-24T12:09:24.593Z,29.57
2018-06-24T12:10:34.080Z,29.71
2018-06-24T12:11:43.836Z,29.8
2018-06-24T12:12:53.860Z,30.02
2018-06-24T12:14:03.887Z,30.36
2018-06-24T12:15:13.696Z,30.48
2018-06-24T12:16:23.724Z,30.67
2018-06-24T12:17:33.490Z,30.63
2018-06-24T12:18:42.978Z,30.73
2018-06-24T12:19:52.206Z,30.81
2018-06-24T12:21:02.229Z,30.85
2018-06-24T12:22:11.713Z,30.91
2018-06-24T12:23:21.467Z,31.04
2018-06-24T12:24:31.226Z,31.1
2018-06-24T12:25:41.248Z,31.02
2018-06-24T12:26:51.281Z,30.81
2018-06-24T12:28:01.036Z,30.77
2018-06-24T12:29:10.527Z,30.78
2018-06-24T12:30:20.552Z,30.62
2018-06-24T12:31:30.573Z,30.62
2018-06-24T12:32:40.330Z,30.63
2018-06-24T12:33:49.820Z,30.71
2018-06-24T12:34:59.846Z,30.88
2018-06-24T12:36:09.607Z,30.95
2018-06-24T12:37:19.423Z,30.81
2018-06-24T12:38:29.272Z,31.02
2018-06-24T12:39:39.311Z,30.95
2018-06-24T12:40:49.332Z,30.98
2018-06-24T12:41:59.353Z,30.98
2018-06-24T12:43:09.116Z,30.99
2018-06-24T12:44:19.145Z,31.04
2018-06-24T12:45:28.645Z,31
2018-06-24T12:46:38.403Z,30.81
2018-06-24T12:47:48.425Z,30.39
2018-06-24T12:48:58.191Z,30.46
2018-06-24T12:50:07.953Z,30.62
2018-06-24T12:51:17.983Z,30.76
2018-06-24T12:52:27.472Z,30.73
2018-06-24T12:53:37.236Z,30.76
2018-06-24T12:54:46.990Z,30.65
2018-06-24T12:55:56.481Z,30.62
2018-06-24T12:57:06.252Z,30.73
2018-06-24T12:58:16.613Z,30.7
2018-06-24T12:59:27.973Z,30.52
2018-06-24T13:00:41.588Z,30.32
2018-06-24T13:01:53.388Z,30.46
2018-06-24T13:03:03.142Z,30.27
2018-06-24T13:04:12.363Z,30.02
2018-06-24T13:05:22.153Z,29.94
2018-06-24T13:06:32.340Z,29.65
2018-06-24T13:07:42.369Z,29.84
2018-06-24T13:08:52.124Z,29.89
2018-06-24T13:10:01.891Z,29.87
2018-06-24T13:11:11.919Z,29.87
2018-06-24T13:12:21.941Z,29.77
2018-06-24T13:13:31.972Z,29.84
2018-06-24T13:14:41.991Z,29.62
2018-06-24T13:15:52.017Z,29.68
2018-06-24T13:17:02.043Z,29.76
2018-06-24T13:18:11.540Z,29.68
2018-06-24T13:19:20.765Z,29.73
2018-06-24T13:20:30.520Z,29.83
2018-06-24T13:21:40.296Z,29.89
2018-06-24T13:22:50.324Z,29.74
2018-06-24T13:24:00.410Z,29.8
2018-06-24T13:25:09.905Z,29.84
2018-06-24T13:26:19.938Z,29.79
2018-06-24T13:27:29.961Z,29.62
2018-06-24T13:28:39.452Z,29.5
2018-06-24T13:29:49.471Z,29.37
2018-06-24T13:30:59.497Z,29.4
2018-06-24T13:32:09.125Z,29.34
2018-06-24T13:33:19.021Z,29.15
2018-06-24T13:34:28.778Z,29.15
2018-06-24T13:35:38.798Z,29.13
2018-06-24T13:36:48.554Z,29.02
2018-06-24T13:37:58.573Z,28.94
2018-06-24T13:39:08.600Z,28.9
2018-06-24T13:40:18.814Z,28.7
2018-06-24T13:41:28.727Z,28.84
2018-06-24T13:42:38.215Z,28.77
2018-06-24T13:43:47.440Z,28.77
2018-06-24T13:44:57.456Z,28.87
2018-06-24T13:46:06.679Z,28.7
2018-06-24T13:47:16.435Z,28.62
2018-06-24T13:48:26.463Z,28.43
2018-06-24T13:49:36.219Z,28.47
2018-06-24T13:50:46.242Z,28.45
2018-06-24T13:51:55.729Z,28.46
2018-06-24T13:53:05.484Z,28.59
2018-06-24T13:54:15.245Z,28.53
2018-06-24T13:55:25.001Z,28.6
2018-06-24T13:56:34.749Z,28.53
2018-06-24T13:57:44.238Z,28.55
2018-06-24T13:58:54.261Z,28.55
2018-06-24T14:00:04.342Z,28.57
2018-06-24T14:01:14.102Z,28.67
2018-06-24T14:02:23.860Z,28.6
2018-06-24T14:03:33.614Z,28.65
2018-06-24T14:04:43.106Z,28.59
2018-06-24T14:05:52.595Z,28.67
2018-06-24T14:07:02.650Z,28.72
2018-06-24T14:08:12.139Z,28.78
2018-06-24T14:09:21.899Z,28.77
2018-06-24T14:10:31.654Z,28.78
2018-06-24T14:11:41.405Z,28.8
2018-06-24T14:12:51.431Z,28.71
2018-06-24T14:14:01.279Z,28.67
2018-06-24T14:15:11.629Z,28.62
2018-06-24T14:16:21.649Z,28.67
2018-06-24T14:17:31.136Z,28.59
2018-06-24T14:18:40.890Z,28.59
2018-06-24T14:19:50.910Z,28.57
2018-06-24T14:21:00.934Z,28.62
2018-06-24T14:22:10.426Z,28.71
2018-06-24T14:23:20.765Z,28.77
2018-06-24T14:24:30.752Z,28.87
2018-06-24T14:25:40.519Z,28.84
2018-06-24T14:26:50.549Z,28.86
2018-06-24T14:28:00.365Z,28.97
2018-06-24T14:29:10.388Z,28.97
2018-06-24T14:30:19.615Z,29.15
2018-06-24T14:31:29.105Z,29.31
2018-06-24T14:32:38.873Z,29.09
2018-06-24T14:33:48.627Z,28.84
2018-06-24T14:34:58.645Z,28.82
2018-06-24T14:36:08.674Z,28.84
2018-06-24T14:37:18.434Z,29.05
2018-06-24T14:38:28.464Z,29.03
2018-06-24T14:39:38.222Z,29.18
2018-06-24T14:40:48.240Z,29.28
2018-06-24T14:41:58.317Z,29.12
2018-06-24T14:43:07.807Z,29.09
2018-06-24T14:44:17.832Z,29.24
2018-06-24T14:45:27.595Z,29.28
2018-06-24T14:46:37.610Z,29.34
2018-06-24T14:47:47.367Z,29.31
2018-06-24T14:48:57.389Z,29.47
2018-06-24T14:50:07.143Z,29.61
2018-06-24T14:51:17.160Z,29.53
2018-06-24T14:52:27.184Z,29.68
2018-06-24T14:53:36.939Z,29.83
2018-06-24T14:54:46.697Z,30.08
2018-06-24T14:55:56.454Z,30.27
2018-06-24T14:57:05.946Z,30.59
2018-06-24T14:58:15.434Z,30.86
2018-06-24T14:59:25.192Z,30.98
2018-06-24T15:00:35.215Z,31.1
2018-06-24T15:01:45.343Z,31.26
2018-06-24T15:02:54.898Z,31.44
2018-06-24T15:04:04.925Z,31.63
2018-06-24T15:05:14.421Z,31.93
2018-06-24T15:06:24.453Z,32.46